HOURLY OBS INDEX

029

Gulf Country

BURKETOWN AIRPORT

Site: 029077
Alt: 5.7m
2km S of BURKETOWN


  Time     Wind        Temp  DP   Baro     Rain since   Rain past  Vis(m), Cloud(base in m), Weather
  local        km/h                         9am  last   hr   10m    
Wed 16:00    N 19/ 26  31.7 17.2  1010.6    0.0   0.0   0.0   0.0   ----- 
Wed 16:30  NNE 22/ 32  31.0 17.0  1010.7    0.0   0.0   0.0   0.0   ----- 
Wed 17:00    N 20/ 28  30.3 17.4  1010.6    0.0   0.0   0.0   0.0   ----- 
Wed 17:30  NNE 20/ 28  29.1 17.0  1010.7    0.0   0.0   0.0   0.0   ----- 
Wed 18:00  NNE 22/ 30  27.7 16.9  1010.8    0.0   0.0   0.0   0.0   ----- 
Wed 18:30  NNE 22/ 28  26.2 16.2  1011.0    0.0   0.0   0.0   0.0   ----- 
Wed 19:00    N 15/ 20  25.3 15.6  1011.2    0.0   0.0   0.0   0.0   ----- 
Wed 19:30    N 13/ 17  24.6 15.8  1011.5    0.0   0.0   0.0   0.0   ----- 
Wed 20:00    N 11/ 15  23.7 16.2  1011.7    0.0   0.0   0.0   0.0   ----- 
Wed 20:30  NNW  9/ 11  22.8 16.4  1012.0    0.0   0.0   0.0   0.0   ----- 
Wed 21:00  NNW  7/  9  22.1 15.7  1012.3    0.0   0.0   0.0   0.0   ----- 

CENTURY MINE

Site: 029167
Alt: 126.8m
144km SW of BURKETOWN


  Time     Wind        Temp  DP   Baro     Rain since   Rain past  Vis(m), Cloud(base in m), Weather
  local        km/h                         9am  last   hr   10m    
Wed 16:00   NE  9/ 19  35.9 -0.5  1009.8    0.0   0.0   0.0   0.0   ----- 
Wed 16:30  ESE  9/ 19  35.5 -0.8  1009.7    0.0   0.0   0.0   0.0   ----- 
Wed 17:00    E  4/ 11  35.5 -0.8  1009.8    0.0   0.0   0.0   0.0   ----- 
Wed 17:30  ENE  2/  9  35.4 -0.8  1009.9    0.0   0.0   0.0   0.0   ----- 
Wed 18:00    S  7/ 11  34.6 -2.9  1010.2    0.0   0.0   0.0   0.0   ----- 
Wed 18:30    S  7/ 13  33.1 -2.6  1010.5    0.0   0.0   0.0   0.0   ----- 
Wed 19:00    S  6/  7  30.3 -4.7  1010.9    0.0   0.0   0.0   0.0   ----- 
Wed 19:30    C  0/  0  28.2 -3.9  1011.3    0.0   0.0   0.0   0.0   ----- 
Wed 20:00    E  4/  7  26.0 -4.5  1011.8    0.0   0.0   0.0   0.0   ----- 
Wed 20:30    S 15/ 26  30.5 -3.3  1012.7    0.0   0.0   0.0   0.0   ----- 
Wed 21:00    S 17/ 28  29.7 -3.9  1013.2    0.0   0.0   0.0   0.0   ----- 

CLONCURRY AIRPORT

Site: 029141
Alt: 186.0m
105km E of MOUNT ISA


  Time     Wind        Temp  DP   Baro     Rain since   Rain past  Vis(m), Cloud(base in m), Weather
  local        km/h                         9am  last   hr   10m    
Wed 16:00  SSE 15/ 22  34.1 -6.5  1010.9    0.0   0.0   0.0   0.0   ----- 
Wed 16:30    S 13/ 20  34.6 -6.2  1010.9    0.0   0.0   0.0   0.0   ----- 
Wed 17:00  SSW 15/ 26  34.4 -6.3  1011.1    0.0   0.0   0.0   0.0   ----- 
Wed 17:30  SSW 19/ 24  34.3 -6.4  1011.2    0.0   0.0   0.0   0.0   ----- 
Wed 18:00  SSW 22/ 30  33.2 -5.5  1011.7    0.0   0.0   0.0   0.0   ----- 
Wed 18:30  SSW 26/ 33  31.5 -5.2  1012.1    0.0   0.0   0.0   0.0   ----- 
Wed 19:00  SSW 26/ 35  30.6 -4.4  1012.7    0.0   0.0   0.0   0.0   ----- 
Wed 19:30    S 24/ 30  29.7 -5.1  1013.3    0.0   0.0   0.0   0.0   ----- 
Wed 20:00    S 24/ 33  28.9 -4.5  1013.8    0.0   0.0   0.0   0.0   ----- 
Wed 20:30    S 24/ 35  28.1 -5.1  1014.2    0.0   0.0   0.0   0.0   ----- 
Wed 21:00    S 24/ 30  27.6 -4.3  1014.6    0.0   0.0   0.0   0.0   ----- 

JULIA CREEK AIRPORT

Site: 029058
Alt: 122.5m
232km E of MOUNT ISA


  Time     Wind        Temp  DP   Baro     Rain since   Rain past  Vis(m), Cloud(base in m), Weather
  local        km/h                         9am  last   hr   10m    
Wed 16:00    W  9/ 19  35.0 -5.9  1010.5    0.0   0.0   0.0   0.0   10000 
Wed 16:30    S 19/ 24  34.9 -6.0  1010.5    0.0   0.0   0.0   0.0   10000 
Wed 17:00  ESE 11/ 17  35.0 -5.9  1010.6    0.0   0.0   0.0   0.0   10000 
Wed 17:30    S 19/ 24  34.3 -6.4  1010.9    0.0   0.0   0.0   0.0   10000 
Wed 18:00    S 13/ 19  33.3 -7.1  1011.1    0.0   0.0   0.0   0.0   10000 
Wed 18:30    S 15/ 17  30.1 -7.7  1011.5    0.0   0.0   0.0   0.0   10000 
Wed 19:00  SSW 15/ 17  27.6 -6.7  1011.9    0.0   0.0   0.0   0.0   10000 
Wed 19:30  SSW 17/ 19  25.3 -7.2  1012.4    0.0   0.0   0.0   0.0   10000 
Wed 20:00  SSW 22/ 28  27.2 -8.4  1012.9    0.0   0.0   0.0   0.0   10000 
Wed 20:30  SSW 24/ 30  27.1 -8.5  1013.2    0.0   0.0   0.0   0.0   10000 
Wed 21:00  SSW 24/ 28  26.1 -7.9  1013.4    0.0   0.0   0.0   0.0   10000 

KOWANYAMA AIRPORT

Site: 029038
Alt: 9.6m
253km NNE of NORMANTON


  Time     Wind        Temp  DP   Baro     Rain since   Rain past  Vis(m), Cloud(base in m), Weather
  local        km/h                         9am  last   hr   10m    
Wed 16:00   SE 17/ 30  34.6  6.0  1008.9    0.0   0.0   0.0   0.0   10000 
Wed 16:30   SE 17/ 26  34.3  4.9  1008.9    0.0   0.0   0.0   0.0   10000 
Wed 17:00   SE 17/ 22  34.2  5.7  1009.1    0.0   0.0   0.0   0.0   10000 
Wed 17:30  WSW 19/ 26  30.2 15.9  1009.4    0.0   0.0   0.0   0.0   10000|SC1080 
Wed 18:00  WSW 20/ 28  28.6 16.5  1009.7    0.0   0.0   0.0   0.0   10000 
Wed 18:30  WSW 15/ 20  27.3 16.9  1010.4    0.0   0.0   0.0   0.0   10000 
Wed 19:00   SW 17/ 22  26.5 17.6  1010.8    0.0   0.0   0.0   0.0   10000 
Wed 19:30   SW 15/ 20  25.8 18.2  1011.3    0.0   0.0   0.0   0.0   10000 
Wed 20:00  SSW 13/ 17  25.1 18.8  1011.7    0.0   0.0   0.0   0.0   10000 
Wed 20:30   SW 11/ 15  24.6 19.2  1012.0    0.0   0.0   0.0   0.0   10000 
Wed 21:00  SSW 13/ 17  24.3 19.1  1012.2    0.0   0.0   0.0   0.0   10000 

LAKE JULIUS AWS

Site: 029181
Alt: 237.0m
km of


  Time     Wind        Temp  DP   Baro     Rain since   Rain past  Vis(m), Cloud(base in m), Weather
  local        km/h                         9am  last   hr   10m    
Wed 16:00   SW  9/ 15  35.0 -7.9  ------    0.0   0.0   0.0   0.0   ----- 
Wed 16:30  SSE  6/ 13  35.3-10.0  ------    0.0   0.0   0.0   0.0   ----- 
Wed 17:00  SSE  7/ 13  34.7 -8.1  ------    0.0   0.0   0.0   0.0   ----- 
Wed 17:30    S  7/ 13  34.2 -8.5  ------    0.0   0.0   0.0   0.0   ----- 
Wed 18:00    S 11/ 24  33.7 -6.8  ------    0.0   0.0   0.0   0.0   ----- 
Wed 18:30   SE  6/ 11  32.8 -9.4  ------    0.0   0.0   0.0   0.0   ----- 
Wed 19:00  SSE  6/ 11  32.1 -8.0  ------    0.0   0.0   0.0   0.0   ----- 
Wed 19:30    S  7/ 17  29.7 -6.5  ------    0.0   0.0   0.0   0.0   ----- 
Wed 20:00    S 13/ 22  30.3 -6.1  ------    0.0   0.0   0.0   0.0   ----- 
Wed 20:30    S 17/ 30  29.4 -5.4  ------    0.0   0.0   0.0   0.0   ----- 
Wed 21:00    S 19/ 32  28.3 -3.8  ------    0.0   0.0   0.0   0.0   ----- 

MORNINGTON ISLAND AIRPORT

Site: 029182
Alt: 9.5m
km of


  Time     Wind        Temp  DP   Baro     Rain since   Rain past  Vis(m), Cloud(base in m), Weather
  local        km/h                         9am  last   hr   10m    
Wed 16:00    N 17/ 26  28.1 19.1  1011.5    0.2   0.0   0.0   0.0   ----- 
Wed 16:30    N 15/ 20  27.9 19.1  1011.6    0.2   0.0   0.0   0.0   ----- 
Wed 17:00    N 15/ 20  27.4 19.5  1011.6    0.2   0.0   0.0   0.0   ----- 
Wed 17:30  NNW 13/ 19  26.6 19.0  1011.8    0.2   0.0   0.0   0.0   ----- 
Wed 18:00    N 13/ 17  26.1 18.8  1012.0    0.2   0.0   0.0   0.0   ----- 
Wed 18:30    N 13/ 17  25.4 18.1  1012.0    0.2   0.0   0.0   0.0   ----- 
Wed 19:00  NNE  9/ 13  24.5 18.0  1012.1    0.2   0.0   0.0   0.0   ----- 
Wed 19:30  NNE  9/ 13  23.9 18.3  1012.2    0.2   0.0   0.0   0.0   ----- 
Wed 20:00  NNE  7/  9  23.3 18.2  1012.4    0.2   0.0   0.0   0.0   ----- 
Wed 20:30  NNE  6/  7  23.2 18.5  1012.7    0.2   0.0   0.0   0.0   ----- 
Wed 21:00    N  7/ 11  23.1 18.6  1012.9    0.2   0.0   0.0   0.0   ----- 

MOUNT ISA AERO

Site: 029127
Alt: 340.3m
5km N of MOUNT ISA


  Time     Wind        Temp  DP   Baro     Rain since   Rain past  Vis(m), Cloud(base in m), Weather
  local        km/h                         9am  last   hr   10m    
Wed 16:00   SE 13/ 19  34.2 -3.2  1012.2    0.0   0.0   0.0   0.0   10000 
Wed 16:30    S 15/ 24  34.3 -3.1  1012.2    0.0   0.0   0.0   0.0   10000 
Wed 17:00  SSW 11/ 17  33.1 -4.0  1012.4    0.0   0.0   0.0   0.0   10000 
Wed 17:08  SSW 32/ 39  32.9 -2.7  1012.5    0.0   0.0  ----   0.0   10000 
Wed 17:30  SSW 33/ 41  31.8 -2.3  1012.9    0.0   0.0   0.0   0.0   10000 
Wed 18:00  SSW 32/ 39  30.7 -1.9  1013.3    0.0   0.0   0.0   0.0   10000 
Wed 18:30    S 30/ 39  29.6 -2.8  1013.8    0.0   0.0   0.0   0.0   10000 
Wed 19:00  SSE 30/ 33  28.6 -2.5  1014.4    0.0   0.0   0.0   0.0   10000 
Wed 19:30    S 28/ 35  27.9 -3.0  1015.1    0.0   0.0   0.0   0.0   10000 
Wed 20:00    S 28/ 37  27.1 -3.7  1015.5    0.0   0.0   0.0   0.0   10000 
Wed 20:30    S 24/ 37  26.5 -3.1  1015.8    0.0   0.0   0.0   0.0   10000 
Wed 21:00    S 26/ 32  25.7 -2.8  1016.2    0.0   0.0   0.0   0.0   10000 

NORMANTON AIRPORT

Site: 029063
Alt: 18.4m
3km SSE of NORMANTON


  Time     Wind        Temp  DP   Baro     Rain since   Rain past  Vis(m), Cloud(base in m), Weather
  local        km/h                         9am  last   hr   10m    
Wed 16:00    W 24/ 35  32.0 11.2  1010.1    0.0   0.0   0.0   0.0   10000 
Wed 16:30   NW 30/ 37  31.8 11.0  1010.1    0.0   0.0   0.0   0.0   10000 
Wed 17:00    W 24/ 32  31.0 10.9  1010.4    0.0   0.0   0.0   0.0   10000 
Wed 17:30    W 19/ 24  31.1 11.0  1010.4    0.0   0.0   0.0   0.0   10000 
Wed 18:00  WNW 20/ 26  30.1 11.1  1010.5    0.0   0.0   0.0   0.0   10000 
Wed 18:30  WNW 17/ 20  28.9 11.0  1010.7    0.0   0.0   0.0   0.0   10000 
Wed 19:00   NW 13/ 17  27.7 11.3  1011.1    0.0   0.0   0.0   0.0   10000 
Wed 19:30  WNW 13/ 15  26.8 11.7  1011.5    0.0   0.0   0.0   0.0   10000 
Wed 20:00  WNW  9/ 11  25.8 12.3  1011.8    0.0   0.0   0.0   0.0   10000 
Wed 20:30   NW  7/  9  25.5 13.4  1012.1    0.0   0.0   0.0   0.0   10000 
Wed 21:00  NNW  7/  9  24.7 14.2  1012.3    0.0   0.0   0.0   0.0   10000